Time;durP1;ratioP1;P1;durP2;ratioP2;P2;SDS_P1;SDS_P2;PMS_P1;PMS_P2;Temp;Humidity;BMP_temperature;BMP_pressure;BME280_temperature;BME280_humidity;BME280_pressure;Samples;Min_cycle;Max_cycle;Signal;HPM_P1;HPM_P2
2023/11/07 00:01:49;;;;;;;10.25;5.80;;;;;;;;;;5092160;28;20043;-72
2023/11/07 00:04:15;;;;;;;13.38;5.55;;;;;;;;;;5093226;28;20036;-72
2023/11/07 00:06:41;;;;;;;8.77;5.40;;;;;;;;;;5093110;28;20063;-71
2023/11/07 00:09:09;;;;;;;12.23;5.97;;;;;;;;;;5075881;28;20046;-72
2023/11/07 00:11:35;;;;;;;10.77;6.15;;;;;;;;;;5058760;28;20036;-71
2023/11/07 00:14:02;;;;;;;7.55;5.47;;;;;;;;;;5075492;28;20031;-71
2023/11/07 00:16:30;;;;;;;9.75;5.82;;;;;;;;;;5093305;28;20050;-71
2023/11/07 00:18:56;;;;;;;7.90;5.10;;;;;;;;;;5075262;28;20024;-71
2023/11/07 00:21:22;;;;;;;8.18;5.60;;;;;;;;;;5092026;28;20870;-71
2023/11/07 00:23:48;;;;;;;9.23;5.28;;;;;;;;;;5093090;28;20027;-71
2023/11/07 00:26:14;;;;;;;8.02;5.35;;;;;;;;;;5058523;28;20394;-71
2023/11/07 00:28:46;;;;;;;9.35;5.10;;;;;;;;;;5092706;28;20181;-71
2023/11/07 00:31:13;;;;;;;7.15;4.78;;;;;;;;;;5091727;28;20130;-73
2023/11/07 00:33:38;;;;;;;6.65;4.88;;;;;;;;;;5075139;28;20350;-72
2023/11/07 00:36:04;;;;;;;6.68;4.60;;;;;;;;;;5075126;28;20044;-72
2023/11/07 00:38:30;;;;;;;4.82;3.90;;;;;;;;;;5092074;28;20129;-72
2023/11/07 00:40:56;;;;;;;9.13;4.93;;;;;;;;;;5074882;28;20477;-72
2023/11/07 00:43:22;;;;;;;7.15;4.38;;;;;;;;;;5091821;28;20032;-73
2023/11/07 00:45:47;;;;;;;7.13;4.68;;;;;;;;;;5058194;28;20032;-73
2023/11/07 00:48:13;;;;;;;5.35;4.38;;;;;;;;;;5092479;28;20028;-73
2023/11/07 00:50:40;;;;;;;5.05;4.55;;;;;;;;;;5074447;28;20060;-73
2023/11/07 00:53:05;;;;;;;5.53;4.43;;;;;;;;;;5091321;28;20075;-73
2023/11/07 00:55:31;;;;;;;8.32;4.50;;;;;;;;;;5091806;28;20071;-73
2023/11/07 00:57:56;;;;;;;6.00;4.50;;;;;;;;;;5091374;28;20093;-74
2023/11/07 01:00:22;;;;;;;8.07;4.10;;;;;;;;;;5091336;28;20059;-73
2023/11/07 01:02:48;;;;;;;5.90;3.88;;;;;;;;;;5091422;28;20127;-73
2023/11/07 01:05:14;;;;;;;7.80;4.30;;;;;;;;;;5091427;28;20109;-72
2023/11/07 01:07:40;;;;;;;6.78;4.22;;;;;;;;;;5092324;28;20454;-73
2023/11/07 01:10:06;;;;;;;13.65;4.00;;;;;;;;;;5069942;28;20278;-73
2023/11/07 01:12:32;;;;;;;6.07;4.30;;;;;;;;;;5070286;28;20127;-72
2023/11/07 01:14:58;;;;;;;4.95;3.97;;;;;;;;;;5053065;28;20143;-72
2023/11/07 01:17:23;;;;;;;5.43;4.50;;;;;;;;;;5069889;28;20387;-72
2023/11/07 01:19:49;;;;;;;8.52;4.20;;;;;;;;;;5053068;28;20033;-72
2023/11/07 01:22:15;;;;;;;5.03;4.22;;;;;;;;;;5089676;28;20130;-72
2023/11/07 01:24:40;;;;;;;7.75;4.28;;;;;;;;;;5072359;28;20058;-72
2023/11/07 01:27:07;;;;;;;5.95;4.22;;;;;;;;;;5089863;28;20035;-72
2023/11/07 01:29:32;;;;;;;6.38;4.43;;;;;;;;;;5073315;28;20129;-72
2023/11/07 01:31:58;;;;;;;9.13;4.35;;;;;;;;;;5089785;28;20052;-72
2023/11/07 01:34:23;;;;;;;7.38;4.70;;;;;;;;;;5089748;28;20044;-72
2023/11/07 01:36:49;;;;;;;7.80;4.60;;;;;;;;;;5072850;28;20543;-72
2023/11/07 01:39:14;;;;;;;6.70;4.63;;;;;;;;;;5072819;28;20040;-72
2023/11/07 01:41:40;;;;;;;5.97;4.40;;;;;;;;;;5089708;28;20386;-72
2023/11/07 01:44:06;;;;;;;8.25;4.25;;;;;;;;;;5090081;28;20093;-72
2023/11/07 01:46:32;;;;;;;9.20;4.97;;;;;;;;;;5090183;28;20131;-72
2023/11/07 01:48:57;;;;;;;6.05;4.43;;;;;;;;;;5107482;28;20060;-73
2023/11/07 01:51:24;;;;;;;6.85;4.55;;;;;;;;;;5107449;28;20036;-74
2023/11/07 01:53:50;;;;;;;8.77;5.22;;;;;;;;;;5108338;28;20040;-73
2023/11/07 01:56:15;;;;;;;7.32;4.70;;;;;;;;;;5108801;28;20063;-74
2023/11/07 01:58:41;;;;;;;7.53;4.90;;;;;;;;;;5108533;28;20071;-72
2023/11/07 02:01:07;;;;;;;8.20;4.45;;;;;;;;;;5090938;28;20433;-74
2023/11/07 02:03:33;;;;;;;5.63;4.30;;;;;;;;;;5090930;28;20036;-73
2023/11/07 02:05:59;;;;;;;7.03;4.55;;;;;;;;;;5090499;28;20152;-72
2023/11/07 02:08:25;;;;;;;8.43;4.40;;;;;;;;;;5107491;28;20374;-72
2023/11/07 02:10:51;;;;;;;6.70;4.20;;;;;;;;;;5091737;28;20028;-72
2023/11/07 02:13:17;;;;;;;5.93;4.00;;;;;;;;;;5090665;28;20382;-73
2023/11/07 02:15:44;;;;;;;7.20;4.32;;;;;;;;;;5073543;28;20504;-72
2023/11/07 02:18:09;;;;;;;6.05;4.05;;;;;;;;;;5090243;28;20134;-73
2023/11/07 02:20:39;;;;;;;8.63;3.80;;;;;;;;;;5090981;28;20027;-74
2023/11/07 02:23:27;;;;;;;5.38;3.85;;;;;;;;;;5091503;28;20147;-75
2023/11/07 02:25:53;;;;;;;4.85;3.58;;;;;;;;;;5090743;28;20107;-73
2023/11/07 02:28:19;;;;;;;6.47;3.70;;;;;;;;;;5090416;28;20134;-73
2023/11/07 02:30:44;;;;;;;6.50;3.20;;;;;;;;;;5091251;28;20123;-73
2023/11/07 02:33:10;;;;;;;3.92;3.30;;;;;;;;;;5090400;28;20036;-73
2023/11/07 02:35:38;;;;;;;7.03;3.33;;;;;;;;;;5093125;28;20036;-73
2023/11/07 02:38:04;;;;;;;10.07;3.50;;;;;;;;;;5094322;28;20398;-73
2023/11/07 02:40:31;;;;;;;6.40;3.63;;;;;;;;;;5114293;28;20036;-73
2023/11/07 02:42:59;;;;;;;4.80;3.25;;;;;;;;;;5097722;28;20039;-73
2023/11/07 02:45:25;;;;;;;6.90;3.17;;;;;;;;;;5114683;28;20477;-73
2023/11/07 02:47:51;;;;;;;3.95;2.70;;;;;;;;;;5097479;28;20066;-73
2023/11/07 02:50:17;;;;;;;5.95;3.20;;;;;;;;;;5114199;28;20067;-73
2023/11/07 02:52:45;;;;;;;4.20;3.00;;;;;;;;;;5114744;28;20071;-73
2023/11/07 02:55:10;;;;;;;3.95;3.10;;;;;;;;;;5097424;28;20067;-73
2023/11/07 02:57:36;;;;;;;4.15;3.00;;;;;;;;;;5114287;28;20134;-73
2023/11/07 03:00:02;;;;;;;6.22;3.17;;;;;;;;;;5097024;28;20032;-74
2023/11/07 03:02:34;;;;;;;3.75;2.90;;;;;;;;;;5097443;28;20043;-72
2023/11/07 03:05:01;;;;;;;4.40;2.83;;;;;;;;;;5114308;28;20039;-72
2023/11/07 03:07:26;;;;;;;3.70;2.78;;;;;;;;;;5097097;28;20108;-72
2023/11/07 03:09:52;;;;;;;4.93;2.42;;;;;;;;;;5114961;27;20104;-72
2023/11/07 03:12:18;;;;;;;5.65;3.00;;;;;;;;;;5097161;28;20039;-72
2023/11/07 03:14:44;;;;;;;5.13;2.65;;;;;;;;;;5097164;28;20077;-72
2023/11/07 03:17:10;;;;;;;3.15;2.50;;;;;;;;;;5096931;28;20047;-72
2023/11/07 03:19:36;;;;;;;7.32;2.90;;;;;;;;;;5097070;28;20032;-72
2023/11/07 03:22:01;;;;;;;5.22;2.75;;;;;;;;;;5097632;28;20346;-73
2023/11/07 03:24:28;;;;;;;11.68;2.78;;;;;;;;;;5097595;28;20032;-65
2023/11/07 03:26:53;;;;;;;4.65;2.50;;;;;;;;;;5113988;28;20047;-72
2023/11/07 03:29:19;;;;;;;6.50;3.08;;;;;;;;;;5080065;28;20023;-72
2023/11/07 03:31:45;;;;;;;3.40;2.70;;;;;;;;;;5097286;28;20040;-71
2023/11/07 03:34:11;;;;;;;5.18;2.78;;;;;;;;;;5097581;28;20035;-72
2023/11/07 03:36:37;;;;;;;6.32;2.60;;;;;;;;;;5113782;28;20043;-73
2023/11/07 03:39:03;;;;;;;3.78;2.55;;;;;;;;;;5113570;28;20032;-73
2023/11/07 03:41:29;;;;;;;7.57;3.85;;;;;;;;;;5096422;28;20119;-73
2023/11/07 03:43:54;;;;;;;4.20;2.45;;;;;;;;;;5096546;28;20028;-73
2023/11/07 03:46:20;;;;;;;5.32;2.55;;;;;;;;;;5095187;28;20068;-73
2023/11/07 03:48:46;;;;;;;3.78;2.70;;;;;;;;;;5113066;28;20038;-72
2023/11/07 03:51:13;;;;;;;3.72;2.53;;;;;;;;;;5096656;28;20469;-73
2023/11/07 03:53:39;;;;;;;6.50;2.38;;;;;;;;;;5114618;28;20047;-72
2023/11/07 03:56:06;;;;;;;4.65;2.20;;;;;;;;;;5112650;28;20035;-73
2023/11/07 03:58:32;;;;;;;4.00;1.90;;;;;;;;;;5110837;28;20047;-73
2023/11/07 04:00:58;;;;;;;1.98;1.80;;;;;;;;;;5112343;28;20034;-73
2023/11/07 04:03:24;;;;;;;5.60;2.42;;;;;;;;;;5095219;28;20035;-73
2023/11/07 04:05:50;;;;;;;4.53;2.05;;;;;;;;;;5094690;28;20126;-73
2023/11/07 04:08:16;;;;;;;3.95;2.42;;;;;;;;;;5095900;28;20042;-73
2023/11/07 04:10:42;;;;;;;7.65;2.53;;;;;;;;;;5113090;28;20065;-73
2023/11/07 04:13:08;;;;;;;4.15;2.30;;;;;;;;;;5095861;28;20039;-73
2023/11/07 04:15:35;;;;;;;2.45;2.22;;;;;;;;;;5112810;28;20039;-73
2023/11/07 04:18:03;;;;;;;3.63;2.30;;;;;;;;;;5112622;28;20050;-73
2023/11/07 04:20:30;;;;;;;3.42;2.30;;;;;;;;;;5112593;28;20042;-74
2023/11/07 04:22:58;;;;;;;3.15;2.35;;;;;;;;;;5095768;28;20047;-73
2023/11/07 04:25:24;;;;;;;5.80;2.30;;;;;;;;;;5091192;28;20146;-73
2023/11/07 04:27:50;;;;;;;7.47;2.92;;;;;;;;;;5057575;28;20040;-73
2023/11/07 04:30:16;;;;;;;4.07;2.22;;;;;;;;;;5091064;28;20117;-75
2023/11/07 04:32:44;;;;;;;4.88;2.42;;;;;;;;;;5058616;28;20042;-71
2023/11/07 04:35:16;;;;;;;3.72;2.03;;;;;;;;;;5064483;28;20503;-73
2023/11/07 04:37:42;;;;;;;4.47;2.40;;;;;;;;;;5057803;28;20094;-73
2023/11/07 04:40:09;;;;;;;4.43;2.22;;;;;;;;;;5074169;28;20089;-72
2023/11/07 04:42:36;;;;;;;4.07;2.60;;;;;;;;;;5049925;28;20455;-71
2023/11/07 04:45:02;;;;;;;4.03;2.60;;;;;;;;;;4990401;28;20390;-73
2023/11/07 04:47:31;;;;;;;2.90;2.58;;;;;;;;;;5034851;28;20045;-73
2023/11/07 04:49:59;;;;;;;5.97;2.40;;;;;;;;;;5027919;28;20049;-73
2023/11/07 04:52:25;;;;;;;5.32;2.20;;;;;;;;;;5012103;28;20052;-74
2023/11/07 04:54:51;;;;;;;6.28;3.40;;;;;;;;;;4997300;28;20041;-72
2023/11/07 04:57:18;;;;;;;4.45;2.40;;;;;;;;;;4996639;28;20140;-75
2023/11/07 04:59:44;;;;;;;5.40;2.63;;;;;;;;;;4998024;28;20037;-74
2023/11/07 05:02:10;;;;;;;3.05;2.33;;;;;;;;;;5040036;28;20090;-74
2023/11/07 05:04:35;;;;;;;3.40;2.33;;;;;;;;;;5070774;28;20075;-74
2023/11/07 05:07:01;;;;;;;4.18;2.22;;;;;;;;;;5053812;28;20095;-75
2023/11/07 05:09:27;;;;;;;5.20;2.25;;;;;;;;;;5070466;28;20044;-76
2023/11/07 05:11:52;;;;;;;3.25;1.95;;;;;;;;;;5053806;28;20028;-75
2023/11/07 05:14:18;;;;;;;2.28;1.80;;;;;;;;;;5088039;28;20067;-74
2023/11/07 05:16:44;;;;;;;2.35;1.63;;;;;;;;;;5091892;28;20044;-74
2023/11/07 05:19:09;;;;;;;4.07;1.73;;;;;;;;;;5072340;28;20096;-74
2023/11/07 05:21:36;;;;;;;5.35;1.95;;;;;;;;;;5072932;28;20036;-74
2023/11/07 05:24:06;;;;;;;3.75;1.85;;;;;;;;;;5074823;28;20040;-75
2023/11/07 05:26:32;;;;;;;2.00;1.73;;;;;;;;;;5073279;28;20119;-74
2023/11/07 05:28:59;;;;;;;2.95;1.60;;;;;;;;;;5057019;28;20139;-74
2023/11/07 05:31:26;;;;;;;2.70;1.63;;;;;;;;;;5074730;28;20527;-74
2023/11/07 05:33:52;;;;;;;3.63;1.40;;;;;;;;;;5091256;28;20359;-74
2023/11/07 05:36:18;;;;;;;1.95;1.38;;;;;;;;;;5092568;28;20059;-73
2023/11/07 05:38:44;;;;;;;2.72;1.25;;;;;;;;;;5074281;28;20048;-73
2023/11/07 05:41:10;;;;;;;4.93;1.50;;;;;;;;;;5091439;28;20047;-73
2023/11/07 05:43:36;;;;;;;1.75;1.20;;;;;;;;;;5074625;28;20402;-73
2023/11/07 05:46:02;;;;;;;3.80;1.40;;;;;;;;;;5074547;28;20478;-73
2023/11/07 05:48:28;;;;;;;2.60;1.30;;;;;;;;;;5058253;28;20040;-73
2023/11/07 05:50:53;;;;;;;1.52;1.27;;;;;;;;;;5091949;28;20051;-73
2023/11/07 05:53:19;;;;;;;2.10;1.20;;;;;;;;;;5092436;28;20130;-73
2023/11/07 05:55:46;;;;;;;1.50;1.20;;;;;;;;;;5076035;28;20070;-73
2023/11/07 05:58:11;;;;;;;1.35;1.20;;;;;;;;;;5092901;28;20545;-73
2023/11/07 06:00:38;;;;;;;2.67;1.13;;;;;;;;;;5057934;28;20043;-73
2023/11/07 06:03:04;;;;;;;2.17;1.15;;;;;;;;;;5092156;28;20040;-73
2023/11/07 06:05:30;;;;;;;4.63;1.40;;;;;;;;;;5092373;28;20454;-73
2023/11/07 06:07:58;;;;;;;2.67;1.40;;;;;;;;;;5093002;28;20036;-73
2023/11/07 06:10:24;;;;;;;2.40;1.15;;;;;;;;;;5077507;28;20043;-73
2023/11/07 06:12:50;;;;;;;3.95;1.10;;;;;;;;;;5096910;28;20039;-73
2023/11/07 06:15:16;;;;;;;3.63;1.08;;;;;;;;;;5096520;28;20040;-73
2023/11/07 06:17:42;;;;;;;1.33;1.02;;;;;;;;;;5078559;28;20048;-74
2023/11/07 06:20:09;;;;;;;4.05;1.30;;;;;;;;;;5095091;28;20047;-73
2023/11/07 06:22:35;;;;;;;4.93;1.33;;;;;;;;;;5061281;28;20036;-74
2023/11/07 06:25:01;;;;;;;1.10;1.00;;;;;;;;;;5095131;28;20063;-73
2023/11/07 06:27:29;;;;;;;2.13;1.10;;;;;;;;;;5095170;28;20043;-73
2023/11/07 06:29:55;;;;;;;1.50;1.20;;;;;;;;;;5077796;28;20047;-74
2023/11/07 06:32:20;;;;;;;2.70;1.23;;;;;;;;;;5078516;28;20089;-74
2023/11/07 06:34:46;;;;;;;1.20;1.00;;;;;;;;;;5077857;28;20188;-73
2023/11/07 06:37:12;;;;;;;4.05;1.10;;;;;;;;;;5077731;28;20047;-73
2023/11/07 06:39:38;;;;;;;1.58;1.00;;;;;;;;;;5077689;28;20040;-73
2023/11/07 06:42:04;;;;;;;1.85;1.20;;;;;;;;;;5094496;28;20078;-74
2023/11/07 06:44:29;;;;;;;2.47;1.10;;;;;;;;;;5077868;28;20047;-73
2023/11/07 06:46:55;;;;;;;2.13;0.98;;;;;;;;;;5077632;28;20044;-74
2023/11/07 06:49:21;;;;;;;2.55;1.10;;;;;;;;;;5077599;28;20091;-74
2023/11/07 06:51:47;;;;;;;4.18;1.13;;;;;;;;;;5095098;28;20071;-73
2023/11/07 06:54:13;;;;;;;1.73;1.13;;;;;;;;;;5095248;28;20040;-73
2023/11/07 06:56:38;;;;;;;1.85;1.20;;;;;;;;;;5094186;28;20028;-74
2023/11/07 06:59:04;;;;;;;1.23;1.02;;;;;;;;;;5094075;28;20163;-74
2023/11/07 07:01:30;;;;;;;2.05;1.30;;;;;;;;;;5094902;28;20032;-73
2023/11/07 07:03:56;;;;;;;3.90;1.65;;;;;;;;;;5094117;28;20121;-74
2023/11/07 07:06:23;;;;;;;2.55;1.20;;;;;;;;;;5077545;28;20032;-74
2023/11/07 07:08:49;;;;;;;1.10;1.00;;;;;;;;;;5077385;28;20027;-74
2023/11/07 07:11:15;;;;;;;0.98;0.98;;;;;;;;;;5072560;28;20049;-74
2023/11/07 07:13:41;;;;;;;2.10;0.98;;;;;;;;;;5055999;28;20056;-74
2023/11/07 07:16:08;;;;;;;2.50;1.35;;;;;;;;;;5056148;28;20049;-74
2023/11/07 07:18:39;;;;;;;2.95;1.20;;;;;;;;;;5072486;28;20051;-74
2023/11/07 07:21:06;;;;;;;3.10;1.08;;;;;;;;;;5070661;28;20040;-74
2023/11/07 07:23:35;;;;;;;2.38;1.20;;;;;;;;;;5072482;28;20045;-74
2023/11/07 07:26:08;;;;;;;1.75;1.10;;;;;;;;;;5072251;28;20087;-74
2023/11/07 07:28:39;;;;;;;2.63;1.23;;;;;;;;;;5055604;28;20048;-74
2023/11/07 07:31:08;;;;;;;1.17;1.08;;;;;;;;;;5055371;28;20483;-74
2023/11/07 07:33:34;;;;;;;1.30;1.00;;;;;;;;;;5055440;28;20466;-74
2023/11/07 07:36:02;;;;;;;4.03;1.05;;;;;;;;;;5055487;28;20518;-74
2023/11/07 07:38:30;;;;;;;1.92;1.02;;;;;;;;;;5071929;28;20052;-74
2023/11/07 07:40:57;;;;;;;1.83;1.30;;;;;;;;;;5038877;28;20115;-74
2023/11/07 07:43:23;;;;;;;2.17;1.13;;;;;;;;;;5092761;28;20048;-74
2023/11/07 07:45:50;;;;;;;2.30;1.00;;;;;;;;;;5093211;28;20035;-74
2023/11/07 07:48:17;;;;;;;3.00;0.90;;;;;;;;;;5094159;28;20426;-73
2023/11/07 07:50:46;;;;;;;1.70;0.85;;;;;;;;;;5092896;28;20379;-74
2023/11/07 07:53:15;;;;;;;0.82;0.70;;;;;;;;;;5093065;28;20059;-74
2023/11/07 07:55:43;;;;;;;3.88;1.70;;;;;;;;;;5092918;28;20035;-74
2023/11/07 07:58:09;;;;;;;6.03;1.33;;;;;;;;;;5076266;28;20066;-74
2023/11/07 08:00:37;;;;;;;1.55;0.98;;;;;;;;;;5093979;28;20032;-74
2023/11/07 08:03:06;;;;;;;2.10;0.80;;;;;;;;;;5093042;28;20094;-74
2023/11/07 08:05:38;;;;;;;4.78;1.20;;;;;;;;;;5092779;28;20063;-74
2023/11/07 08:08:08;;;;;;;2.28;1.10;;;;;;;;;;5092618;28;20042;-74
2023/11/07 08:10:34;;;;;;;5.03;1.23;;;;;;;;;;5075882;28;20173;-74
2023/11/07 08:12:59;;;;;;;1.00;0.88;;;;;;;;;;5075797;28;20157;-74
2023/11/07 08:15:26;;;;;;;3.85;1.10;;;;;;;;;;5093904;28;20042;-74
2023/11/07 08:17:54;;;;;;;1.17;1.00;;;;;;;;;;5092686;28;20048;-73
2023/11/07 08:20:19;;;;;;;1.42;1.10;;;;;;;;;;5092339;28;20469;-73
2023/11/07 08:22:46;;;;;;;4.85;1.10;;;;;;;;;;5092374;28;20044;-74
2023/11/07 08:25:12;;;;;;;1.30;1.20;;;;;;;;;;5092270;28;20073;-75
2023/11/07 08:27:41;;;;;;;1.73;1.27;;;;;;;;;;5075430;28;20047;-73
2023/11/07 08:30:10;;;;;;;1.25;1.15;;;;;;;;;;5092358;28;20028;-74
2023/11/07 08:32:42;;;;;;;5.13;1.73;;;;;;;;;;5091772;28;20066;-74
2023/11/07 08:35:11;;;;;;;1.67;1.40;;;;;;;;;;5092911;28;20036;-74
2023/11/07 08:37:38;;;;;;;2.03;1.50;;;;;;;;;;5075263;28;20048;-74
2023/11/07 08:40:06;;;;;;;3.97;2.03;;;;;;;;;;5092046;28;20085;-74
2023/11/07 08:42:31;;;;;;;2.35;1.73;;;;;;;;;;5092199;28;20074;-74
2023/11/07 08:44:57;;;;;;;2.35;1.42;;;;;;;;;;5075531;28;20075;-74
2023/11/07 08:47:23;;;;;;;5.57;1.80;;;;;;;;;;5092135;28;20139;-73
2023/11/07 08:49:48;;;;;;;1.70;1.38;;;;;;;;;;5075577;28;20143;-74
2023/11/07 08:52:14;;;;;;;2.47;1.40;;;;;;;;;;5092320;28;20039;-74
2023/11/07 08:54:41;;;;;;;2.78;1.40;;;;;;;;;;5092335;28;20046;-74
2023/11/07 08:57:06;;;;;;;1.80;1.30;;;;;;;;;;5075125;28;20044;-74
2023/11/07 08:59:32;;;;;;;1.50;1.40;;;;;;;;;;5091967;28;20040;-74
2023/11/07 09:01:59;;;;;;;2.22;1.10;;;;;;;;;;5093101;28;20478;-74
2023/11/07 09:04:25;;;;;;;1.35;1.25;;;;;;;;;;5093550;28;20046;-74
2023/11/07 09:06:51;;;;;;;1.77;1.17;;;;;;;;;;5091781;28;20036;-74
2023/11/07 09:09:16;;;;;;;4.75;1.50;;;;;;;;;;5092774;28;20066;-74
2023/11/07 09:11:43;;;;;;;2.00;1.35;;;;;;;;;;5074636;28;20059;-74
2023/11/07 09:14:09;;;;;;;1.83;1.20;;;;;;;;;;5091468;28;20531;-74
2023/11/07 09:16:34;;;;;;;2.75;1.42;;;;;;;;;;5091355;28;20032;-74
2023/11/07 09:19:00;;;;;;;6.32;1.30;;;;;;;;;;5074764;28;20458;-74
2023/11/07 09:21:26;;;;;;;2.30;1.60;;;;;;;;;;5074822;28;20124;-74
2023/11/07 09:23:53;;;;;;;0.90;0.90;;;;;;;;;;5074418;28;20036;-74
2023/11/07 09:26:19;;;;;;;1.35;1.08;;;;;;;;;;5074341;28;20040;-74
2023/11/07 09:28:45;;;;;;;2.42;1.20;;;;;;;;;;5091345;28;20114;-74
2023/11/07 09:31:13;;;;;;;1.52;1.00;;;;;;;;;;5074511;28;20060;-74
2023/11/07 09:33:39;;;;;;;2.45;1.13;;;;;;;;;;5091505;28;20084;-74
2023/11/07 09:36:06;;;;;;;5.03;1.23;;;;;;;;;;5074198;28;20067;-74
2023/11/07 09:38:34;;;;;;;4.90;1.33;;;;;;;;;;5074625;28;20098;-75
2023/11/07 09:41:01;;;;;;;3.17;1.27;;;;;;;;;;5091479;28;20093;-74
2023/11/07 09:43:26;;;;;;;1.90;1.08;;;;;;;;;;5090859;28;20036;-74
2023/11/07 09:46:00;;;;;;;2.97;1.35;;;;;;;;;;5073837;28;20338;-74
2023/11/07 09:48:26;;;;;;;4.50;1.10;;;;;;;;;;5092479;28;20040;-74
2023/11/07 09:50:52;;;;;;;2.63;1.20;;;;;;;;;;5057554;28;20351;-74
2023/11/07 09:53:19;;;;;;;2.67;1.00;;;;;;;;;;5057496;28;20043;-74
2023/11/07 09:55:45;;;;;;;1.23;0.90;;;;;;;;;;5074370;28;20028;-74
2023/11/07 09:58:15;;;;;;;1.55;0.90;;;;;;;;;;5057202;28;20040;-74
2023/11/07 10:00:43;;;;;;;;;;;;;;;;;;5074619;28;20028;-74
2023/11/07 10:03:08;;;;;;;3.78;1.00;;;;;;;;;;5090989;28;19985;-74
2023/11/07 10:05:37;;;;;;;1.30;0.80;;;;;;;;;;5073886;28;20044;-74
2023/11/07 10:08:03;;;;;;;4.60;0.60;;;;;;;;;;5074329;28;20119;-74
2023/11/07 10:10:29;;;;;;;1.55;0.80;;;;;;;;;;5057666;28;20135;-74
2023/11/07 10:13:05;;;;;;;2.65;0.75;;;;;;;;;;5057413;28;20123;-74
2023/11/07 10:15:32;;;;;;;3.45;0.90;;;;;;;;;;5074337;28;20070;-74
2023/11/07 10:17:58;;;;;;;2.60;0.63;;;;;;;;;;5073986;28;20036;-74
2023/11/07 10:20:24;;;;;;;6.00;0.98;;;;;;;;;;5057154;28;20063;-74
2023/11/07 10:22:50;;;;;;;1.55;0.82;;;;;;;;;;5069468;28;20466;-74
2023/11/07 10:25:51;;;;;;;3.72;1.00;;;;;;;;;;5036218;28;20412;-74
2023/11/07 10:28:18;;;;;;;5.20;0.85;;;;;;;;;;4996670;28;20446;-74
2023/11/07 10:30:45;;;;;;;2.15;0.70;;;;;;;;;;5013316;28;20037;-74
2023/11/07 10:33:12;;;;;;;1.83;0.80;;;;;;;;;;5013130;28;20069;-74
2023/11/07 10:35:52;;;;;;;1.30;0.85;;;;;;;;;;5013122;28;20529;-74
2023/11/07 10:38:18;;;;;;;1.50;1.27;;;;;;;;;;5012834;28;20053;-74
2023/11/07 10:40:44;;;;;;;3.03;1.10;;;;;;;;;;5013306;28;20044;-74
2023/11/07 10:43:10;;;;;;;1.17;1.00;;;;;;;;;;4973645;28;20050;-74
2023/11/07 10:45:37;;;;;;;0.82;0.73;;;;;;;;;;4970397;28;20061;-74
2023/11/07 10:48:03;;;;;;;4.93;1.25;;;;;;;;;;4961086;28;20080;-74
2023/11/07 10:50:30;;;;;;;2.85;1.00;;;;;;;;;;4993218;28;20058;-74
2023/11/07 10:52:55;;;;;;;1.20;0.88;;;;;;;;;;5014455;28;20048;-74
2023/11/07 10:55:21;;;;;;;5.03;1.40;;;;;;;;;;5033174;28;20040;-74
2023/11/07 10:57:58;;;;;;;3.03;0.90;;;;;;;;;;5019519;28;20139;-74
2023/11/07 11:00:27;;;;;;;1.85;1.05;;;;;;;;;;5019638;28;20051;-74
2023/11/07 11:02:54;;;;;;;1.42;0.98;;;;;;;;;;5052858;28;20061;-74
2023/11/07 11:05:20;;;;;;;1.50;0.95;;;;;;;;;;5036457;28;20048;-74
2023/11/07 11:07:50;;;;;;;2.60;1.10;;;;;;;;;;5035638;28;20037;-75
2023/11/07 11:10:20;;;;;;;4.07;0.90;;;;;;;;;;5053615;28;20131;-75
2023/11/07 11:12:48;;;;;;;2.35;1.10;;;;;;;;;;5049685;28;20036;-74
2023/11/07 11:15:14;;;;;;;1.42;1.00;;;;;;;;;;5076595;28;20043;-74
2023/11/07 11:18:04;;;;;;;1.25;1.00;;;;;;;;;;5060083;28;20044;-75
2023/11/07 11:20:30;;;;;;;1.75;1.00;;;;;;;;;;5069538;28;20055;-75
2023/11/07 11:23:16;;;;;;;3.80;0.90;;;;;;;;;;5071338;28;20082;-73
2023/11/07 11:25:51;;;;;;;2.60;1.20;;;;;;;;;;5040495;28;20040;-74
2023/11/07 11:28:35;;;;;;;3.67;1.15;;;;;;;;;;5057434;28;20055;-74
2023/11/07 11:31:02;;;;;;;1.38;1.00;;;;;;;;;;5066768;28;20047;-73
2023/11/07 11:33:28;;;;;;;1.67;1.20;;;;;;;;;;5055614;28;20170;-73
2023/11/07 11:35:55;;;;;;;1.40;1.30;;;;;;;;;;5055367;28;20136;-74
2023/11/07 11:38:38;;;;;;;1.10;1.00;;;;;;;;;;5047485;28;20513;-75
2023/11/07 11:41:07;;;;;;;1.10;1.00;;;;;;;;;;5018424;28;20049;-74
2023/11/07 11:43:54;;;;;;;2.53;1.20;;;;;;;;;;5033588;28;20146;-74
2023/11/07 11:46:39;;;;;;;1.30;1.10;;;;;;;;;;5034254;28;20264;-74
2023/11/07 11:49:07;;;;;;;1.70;0.90;;;;;;;;;;5015419;28;20103;-74
2023/11/07 11:51:39;;;;;;;3.33;1.00;;;;;;;;;;5015027;28;20075;-74
2023/11/07 11:54:08;;;;;;;4.18;1.00;;;;;;;;;;5049591;28;20478;-73
2023/11/07 11:56:49;;;;;;;2.28;0.90;;;;;;;;;;5055068;28;20048;-73
2023/11/07 11:59:19;;;;;;;4.82;1.10;;;;;;;;;;5056732;28;20482;-73
2023/11/07 12:01:49;;;;;;;1.70;1.10;;;;;;;;;;5058370;28;20119;-71
2023/11/07 12:04:30;;;;;;;2.38;1.30;;;;;;;;;;5054298;28;20036;-71
2023/11/07 12:07:32;;;;;;;6.05;1.40;;;;;;;;;;5020919;28;20044;-72
2023/11/07 12:09:57;;;;;;;;;;;;;;;;;;5071338;28;20086;-72
2023/11/07 12:12:24;;;;;;;3.00;1.00;;;;;;;;;;5032658;28;19916;-73
2023/11/07 12:14:51;;;;;;;4.18;1.25;;;;;;;;;;5070739;28;20128;-72
2023/11/07 12:17:17;;;;;;;5.00;1.05;;;;;;;;;;5040557;28;20090;-72
2023/11/07 12:19:44;;;;;;;1.98;1.20;;;;;;;;;;5073414;28;20043;-72
2023/11/07 12:22:11;;;;;;;2.70;1.45;;;;;;;;;;5077706;28;20032;-71
2023/11/07 12:24:37;;;;;;;4.13;1.60;;;;;;;;;;5076221;28;20032;-70
2023/11/07 12:27:02;;;;;;;1.42;1.23;;;;;;;;;;5075092;28;20036;-71
2023/11/07 12:29:31;;;;;;;1.58;1.00;;;;;;;;;;5099166;28;20535;-70
2023/11/07 12:31:57;;;;;;;3.83;1.10;;;;;;;;;;5093393;28;20130;-71
2023/11/07 12:34:31;;;;;;;2.25;1.00;;;;;;;;;;5095439;28;20469;-71
2023/11/07 12:37:12;;;;;;;2.60;1.00;;;;;;;;;;5108356;28;20058;-71
2023/11/07 12:39:40;;;;;;;1.52;0.90;;;;;;;;;;5089586;28;20040;-70
2023/11/07 12:42:11;;;;;;;1.98;0.90;;;;;;;;;;5105634;28;20512;-73
2023/11/07 12:44:41;;;;;;;1.08;0.98;;;;;;;;;;5107619;28;20032;-75
2023/11/07 12:47:11;;;;;;;4.90;0.90;;;;;;;;;;5087731;28;20067;-75
2023/11/07 12:49:39;;;;;;;1.00;0.90;;;;;;;;;;5066696;28;20152;-74
2023/11/07 12:52:08;;;;;;;2.03;1.02;;;;;;;;;;5072570;28;20482;-73
2023/11/07 12:54:39;;;;;;;3.55;1.50;;;;;;;;;;5090357;28;20047;-75
2023/11/07 12:57:06;;;;;;;5.00;1.92;;;;;;;;;;5067110;28;20515;-74
2023/11/07 12:59:35;;;;;;;5.18;1.92;;;;;;;;;;5103370;28;20044;-74
2023/11/07 13:02:01;;;;;;;4.05;1.45;;;;;;;;;;5094232;28;20063;-74
2023/11/07 13:04:29;;;;;;;3.63;1.15;;;;;;;;;;5095354;28;20063;-73
2023/11/07 13:06:58;;;;;;;3.55;1.50;;;;;;;;;;5086196;28;20081;-74
2023/11/07 13:09:25;;;;;;;1.55;1.13;;;;;;;;;;5077301;28;20886;-72
2023/11/07 13:11:51;;;;;;;2.60;1.00;;;;;;;;;;5084507;28;20039;-73
2023/11/07 13:14:17;;;;;;;1.92;1.25;;;;;;;;;;5072928;28;20035;-75
2023/11/07 13:16:43;;;;;;;1.50;1.10;;;;;;;;;;5072637;28;20059;-73
2023/11/07 13:19:10;;;;;;;1.45;1.15;;;;;;;;;;5068119;28;20032;-73
2023/11/07 13:21:36;;;;;;;2.70;1.20;;;;;;;;;;5088766;28;20374;-74
2023/11/07 13:24:03;;;;;;;3.58;1.15;;;;;;;;;;5048664;28;20040;-74
2023/11/07 13:26:29;;;;;;;1.52;1.25;;;;;;;;;;5040390;28;20079;-75
2023/11/07 13:28:55;;;;;;;1.58;1.30;;;;;;;;;;5089504;28;20492;-74
2023/11/07 13:31:20;;;;;;;1.38;1.17;;;;;;;;;;5054530;28;20040;-75
2023/11/07 13:33:46;;;;;;;1.38;1.10;;;;;;;;;;5053553;28;20054;-74
2023/11/07 13:36:15;;;;;;;4.13;1.20;;;;;;;;;;5061138;28;20071;-73
2023/11/07 13:38:42;;;;;;;1.77;1.13;;;;;;;;;;5048195;28;20496;-74
2023/11/07 13:41:09;;;;;;;6.75;1.17;;;;;;;;;;5025559;28;20123;-74
2023/11/07 13:43:35;;;;;;;2.63;1.00;;;;;;;;;;5048308;28;20056;-75
2023/11/07 13:46:07;;;;;;;1.88;1.13;;;;;;;;;;5043437;28;20083;-75
2023/11/07 13:48:35;;;;;;;1.92;1.17;;;;;;;;;;5016067;28;20487;-75
2023/11/07 13:51:01;;;;;;;5.28;1.25;;;;;;;;;;5028214;28;20514;-74
2023/11/07 13:53:27;;;;;;;5.35;1.13;;;;;;;;;;5011913;28;20045;-76
2023/11/07 13:55:53;;;;;;;2.78;1.30;;;;;;;;;;5012832;28;20057;-74
2023/11/07 13:58:18;;;;;;;4.97;1.13;;;;;;;;;;5032312;28;20059;-75
2023/11/07 14:00:44;;;;;;;2.03;1.38;;;;;;;;;;5033311;28;20135;-73
2023/11/07 14:03:11;;;;;;;2.40;1.50;;;;;;;;;;5032276;28;20037;-75
2023/11/07 14:05:37;;;;;;;1.52;1.40;;;;;;;;;;5008415;28;20049;-74
2023/11/07 14:08:05;;;;;;;1.65;1.15;;;;;;;;;;4976855;28;20038;-73
2023/11/07 14:10:32;;;;;;;4.32;1.55;;;;;;;;;;4977128;28;20056;-72
2023/11/07 14:13:00;;;;;;;6.88;2.08;;;;;;;;;;4993477;28;20088;-75
2023/11/07 14:15:35;;;;;;;2.90;1.65;;;;;;;;;;4993272;28;20037;-74
2023/11/07 14:18:13;;;;;;;5.07;1.70;;;;;;;;;;4988579;28;20105;-74
2023/11/07 14:20:39;;;;;;;3.00;1.70;;;;;;;;;;5008709;28;20061;-74
2023/11/07 14:23:10;;;;;;;2.55;1.58;;;;;;;;;;4992234;28;20144;-74
2023/11/07 14:25:39;;;;;;;3.67;1.40;;;;;;;;;;4977201;28;20049;-74
2023/11/07 14:28:06;;;;;;;2.22;1.30;;;;;;;;;;4977027;28;20472;-68
2023/11/07 14:30:34;;;;;;;4.65;1.58;;;;;;;;;;5009684;28;20073;-68
2023/11/07 14:33:01;;;;;;;3.03;1.50;;;;;;;;;;4996870;28;20439;-68
2023/11/07 14:35:28;;;;;;;2.83;1.40;;;;;;;;;;4996892;28;20048;-68
2023/11/07 14:37:55;;;;;;;1.55;1.40;;;;;;;;;;4977628;28;20058;-72
2023/11/07 14:40:21;;;;;;;2.92;1.50;;;;;;;;;;4977841;28;20054;-75
2023/11/07 14:42:47;;;;;;;2.13;1.25;;;;;;;;;;4977352;28;20041;-74
2023/11/07 14:45:13;;;;;;;1.85;1.20;;;;;;;;;;5001934;28;20431;-74